createdAt,value
2022-10-17T00:01:24.014Z,1.60
2022-10-17T00:03:50.687Z,1.58
2022-10-17T00:06:17.556Z,2.13
2022-10-17T00:08:45.055Z,1.33
2022-10-17T00:11:20.715Z,1.95
2022-10-17T00:13:52.952Z,1.58
2022-10-17T00:16:25.292Z,1.88
2022-10-17T00:18:52.029Z,1.52
2022-10-17T00:21:23.320Z,1.60
2022-10-17T00:23:51.609Z,1.60
2022-10-17T00:26:20.705Z,1.85
2022-10-17T00:28:51.614Z,2.08
2022-10-17T00:31:22.517Z,1.70
2022-10-17T00:33:50.562Z,1.45
2022-10-17T00:36:20.343Z,1.55
2022-10-17T00:38:49.866Z,1.70
2022-10-17T00:41:20.807Z,1.38
2022-10-17T00:43:59.980Z,1.77
2022-10-17T00:46:30.218Z,1.50
2022-10-17T00:48:59.878Z,1.75
2022-10-17T00:51:37.601Z,1.40
2022-10-17T00:54:08.906Z,1.80
2022-10-17T00:56:36.142Z,1.38
2022-10-17T00:59:02.963Z,1.50
2022-10-17T01:01:30.078Z,1.40
2022-10-17T01:03:59.747Z,1.27
2022-10-17T01:06:26.533Z,1.25
2022-10-17T01:08:53.453Z,1.40
2022-10-17T01:11:41.953Z,1.23
2022-10-17T01:14:40.544Z,1.63
2022-10-17T01:17:40.282Z,1.88
2022-10-17T01:20:46.012Z,1.98
2022-10-17T01:23:42.113Z,1.88
2022-10-17T01:26:41.627Z,1.75
2022-10-17T01:29:26.970Z,1.65
2022-10-17T01:32:18.686Z,1.80
2022-10-17T01:35:01.693Z,1.30
2022-10-17T01:37:45.746Z,1.60
2022-10-17T01:40:18.011Z,1.50
2022-10-17T01:43:10.784Z,1.67
2022-10-17T01:46:11.654Z,2.00
2022-10-17T01:51:48.757Z,1.83
2022-10-17T01:54:20.035Z,1.40
2022-10-17T01:56:49.069Z,1.95
2022-10-17T01:59:41.717Z,1.58
2022-10-17T02:02:09.584Z,1.77
2022-10-17T02:04:36.453Z,2.20
2022-10-17T02:07:09.572Z,1.75
2022-10-17T02:09:37.721Z,1.63
2022-10-17T02:12:13.983Z,1.63
2022-10-17T02:15:20.043Z,1.48
2022-10-17T02:18:02.045Z,1.60
2022-10-17T02:20:43.031Z,2.00
2022-10-17T02:23:23.959Z,2.00
2022-10-17T02:26:20.988Z,1.48
2022-10-17T02:29:03.992Z,1.70
2022-10-17T02:32:09.343Z,2.08
2022-10-17T02:34:49.592Z,1.80
2022-10-17T02:37:21.903Z,2.10
2022-10-17T02:39:54.936Z,1.70
2022-10-17T02:42:23.967Z,1.70
2022-10-17T02:44:51.637Z,1.75
2022-10-17T02:47:35.951Z,1.85
2022-10-17T02:50:04.564Z,2.03
2022-10-17T02:53:04.025Z,1.70
2022-10-17T02:56:00.041Z,1.73
2022-10-17T02:58:35.286Z,1.88
2022-10-17T03:01:04.319Z,1.98
2022-10-17T03:03:33.009Z,2.80
2022-10-17T03:06:05.833Z,1.65
2022-10-17T03:08:32.504Z,1.52
2022-10-17T03:11:00.194Z,2.33
2022-10-17T03:13:30.416Z,1.80
2022-10-17T03:16:02.075Z,1.80
2022-10-17T03:18:30.986Z,1.58
2022-10-17T03:21:00.502Z,1.77
2022-10-17T03:23:28.040Z,1.73
2022-10-17T03:25:55.001Z,1.90
2022-10-17T03:28:25.140Z,1.73
2022-10-17T03:30:52.929Z,2.25
2022-10-17T03:33:19.568Z,1.67
2022-10-17T03:38:21.706Z,1.65
2022-10-17T03:40:57.555Z,1.65
2022-10-17T03:43:26.473Z,1.80
2022-10-17T03:45:53.118Z,1.98
2022-10-17T03:48:26.938Z,2.28
2022-10-17T03:51:04.976Z,1.80
2022-10-17T03:53:34.099Z,2.28
2022-10-17T03:56:14.586Z,2.28
2022-10-17T03:58:43.481Z,1.90
2022-10-17T04:01:14.549Z,2.00
2022-10-17T04:03:42.369Z,1.85
2022-10-17T04:06:12.006Z,1.83
2022-10-17T04:08:41.816Z,2.03
2022-10-17T04:11:24.113Z,2.10
2022-10-17T04:14:00.307Z,2.47
2022-10-17T04:16:29.975Z,1.98
2022-10-17T04:19:00.934Z,2.28
2022-10-17T04:21:33.692Z,1.83
2022-10-17T04:24:05.152Z,1.80
2022-10-17T04:26:49.427Z,2.00
2022-10-17T04:29:16.390Z,1.98
2022-10-17T04:31:44.966Z,1.85
2022-10-17T04:34:18.119Z,2.22
2022-10-17T04:36:47.647Z,1.85
2022-10-17T04:39:18.478Z,1.65
2022-10-17T04:41:47.962Z,2.13
2022-10-17T04:44:15.313Z,1.88
2022-10-17T04:46:50.024Z,1.80
2022-10-17T04:49:16.762Z,2.10
2022-10-17T04:51:46.639Z,2.13
2022-10-17T04:54:33.473Z,2.47
2022-10-17T04:57:11.868Z,2.25
2022-10-17T04:59:40.370Z,1.83
2022-10-17T05:02:23.008Z,2.42
2022-10-17T05:04:53.411Z,2.38
2022-10-17T05:07:21.068Z,2.20
2022-10-17T05:10:10.442Z,1.88
2022-10-17T05:12:38.483Z,2.28
2022-10-17T05:15:05.832Z,2.55
2022-10-17T05:17:34.248Z,2.65
2022-10-17T05:20:03.099Z,3.13
2022-10-17T05:22:38.319Z,3.17
2022-10-17T05:25:10.131Z,3.40
2022-10-17T05:27:37.459Z,3.40
2022-10-17T05:30:09.405Z,3.13
2022-10-17T05:32:37.354Z,2.55
2022-10-17T05:35:04.533Z,2.78
2022-10-17T05:37:34.245Z,2.03
2022-10-17T05:40:03.501Z,2.40
2022-10-17T05:42:31.363Z,2.80
2022-10-17T05:45:01.379Z,2.60
2022-10-17T05:47:28.420Z,2.90
2022-10-17T05:49:55.288Z,3.15
2022-10-17T05:52:29.207Z,2.67
2022-10-17T05:55:08.951Z,2.78
2022-10-17T05:57:35.700Z,2.47
2022-10-17T06:00:05.947Z,2.10
2022-10-17T06:02:42.764Z,2.30
2022-10-17T06:05:12.154Z,2.83
2022-10-17T06:07:41.587Z,1.90
2022-10-17T06:10:12.173Z,2.00
2022-10-17T06:12:39.953Z,1.67
2022-10-17T06:15:07.560Z,2.10
2022-10-17T06:17:35.662Z,2.20
2022-10-17T06:20:05.477Z,2.50
2022-10-17T06:22:34.869Z,2.13
2022-10-17T06:25:05.499Z,2.40
2022-10-17T06:27:34.327Z,3.05
2022-10-17T06:30:01.546Z,1.92
2022-10-17T06:32:32.392Z,2.50
2022-10-17T06:34:59.746Z,2.10
2022-10-17T06:37:37.123Z,1.83
2022-10-17T06:40:09.695Z,2.28
2022-10-17T06:42:43.852Z,2.50
2022-10-17T06:45:24.773Z,2.30
2022-10-17T06:47:56.998Z,2.35
2022-10-17T06:50:43.747Z,2.33
2022-10-17T06:53:24.280Z,2.35
2022-10-17T06:56:16.408Z,2.42
2022-10-17T06:58:55.140Z,2.90
2022-10-17T07:01:31.177Z,2.40
2022-10-17T07:04:00.114Z,2.78
2022-10-17T07:06:29.382Z,2.80
2022-10-17T07:09:00.282Z,2.95
2022-10-17T07:11:26.947Z,2.72
2022-10-17T07:13:56.759Z,2.75
2022-10-17T07:16:23.589Z,2.67
2022-10-17T07:19:03.820Z,2.90
2022-10-17T07:24:22.623Z,2.50
2022-10-17T07:32:54.502Z,3.20
2022-10-17T07:35:25.277Z,5.85
2022-10-17T07:37:52.396Z,2.70
2022-10-17T07:40:23.405Z,3.60
2022-10-17T07:42:50.458Z,2.58
2022-10-17T07:45:20.089Z,3.25
2022-10-17T07:47:47.120Z,2.80
2022-10-17T07:50:18.803Z,3.25
2022-10-17T07:52:45.467Z,3.25
2022-10-17T07:55:12.372Z,3.25
2022-10-17T07:57:39.629Z,3.78
2022-10-17T08:00:09.196Z,4.32
2022-10-17T08:02:44.268Z,3.97
2022-10-17T08:05:10.933Z,3.85
2022-10-17T08:07:38.323Z,3.65
2022-10-17T08:10:05.576Z,3.50
2022-10-17T08:12:33.682Z,3.15
2022-10-17T08:15:01.145Z,3.00
2022-10-17T08:17:27.841Z,2.47
2022-10-17T08:19:56.735Z,2.92
2022-10-17T08:22:25.849Z,3.08
2022-10-17T08:24:52.486Z,3.10
2022-10-17T08:27:23.505Z,2.90
2022-10-17T08:29:53.536Z,2.80
2022-10-17T08:32:25.175Z,2.88
2022-10-17T08:34:54.834Z,4.43
2022-10-17T08:37:22.603Z,3.35
2022-10-17T08:39:49.296Z,2.92
2022-10-17T08:42:36.533Z,2.40
2022-10-17T08:45:15.231Z,2.45
2022-10-17T08:47:48.457Z,2.40
2022-10-17T08:50:34.409Z,2.35
2022-10-17T08:53:20.468Z,2.40
2022-10-17T08:55:50.369Z,2.65
2022-10-17T08:58:23.503Z,3.80
2022-10-17T09:01:19.174Z,5.05
2022-10-17T09:04:06.362Z,4.07
2022-10-17T09:06:38.995Z,3.83
2022-10-17T09:09:20.238Z,3.10
2022-10-17T09:12:19.699Z,2.40
2022-10-17T09:15:11.838Z,1.85
2022-10-17T09:17:52.698Z,3.40
2022-10-17T09:20:25.485Z,4.03
2022-10-17T09:23:01.388Z,3.15
2022-10-17T09:25:30.884Z,2.65
2022-10-17T09:28:10.096Z,3.42
2022-10-17T09:30:46.146Z,2.30
2022-10-17T09:33:34.735Z,2.33
2022-10-17T09:36:10.160Z,3.33
2022-10-17T09:39:10.676Z,2.50
2022-10-17T09:41:50.601Z,1.80
2022-10-17T09:44:29.960Z,2.83
2022-10-17T09:47:21.079Z,2.00
2022-10-17T09:49:49.529Z,4.07
2022-10-17T09:52:16.335Z,3.10
2022-10-17T09:54:50.647Z,2.45
2022-10-17T09:57:19.018Z,1.63
2022-10-17T10:00:01.134Z,1.73
2022-10-17T10:02:31.756Z,1.20
2022-10-17T10:05:07.380Z,1.42
2022-10-17T10:07:38.516Z,1.70
2022-10-17T10:10:27.650Z,1.80
2022-10-17T10:13:16.969Z,1.60
2022-10-17T10:15:48.906Z,1.33
2022-10-17T10:21:13.871Z,1.58
2022-10-17T10:23:44.727Z,2.20
2022-10-17T10:26:31.585Z,1.50
2022-10-17T10:29:19.401Z,1.60
2022-10-17T10:31:47.847Z,1.70
2022-10-17T10:34:27.400Z,2.25
2022-10-17T10:37:01.584Z,1.60
2022-10-17T10:39:34.050Z,1.70
2022-10-17T10:42:07.261Z,1.27
2022-10-17T10:44:37.194Z,1.80
2022-10-17T10:47:29.029Z,1.83
2022-10-17T10:50:21.519Z,1.50
2022-10-17T10:53:29.119Z,1.45
2022-10-17T10:56:07.513Z,1.60
2022-10-17T10:58:46.112Z,1.80
2022-10-17T11:01:26.933Z,1.65
2022-10-17T11:04:06.027Z,1.88
2022-10-17T11:06:37.073Z,1.55
2022-10-17T11:09:13.540Z,1.58
2022-10-17T11:12:13.578Z,1.38
2022-10-17T11:14:46.613Z,1.92
2022-10-17T11:17:29.458Z,1.58
2022-10-17T11:20:08.900Z,1.45
2022-10-17T11:22:50.849Z,1.47
2022-10-17T11:25:39.414Z,1.60
2022-10-17T11:28:32.305Z,1.60
2022-10-17T11:31:13.991Z,1.30
2022-10-17T11:34:00.266Z,1.65
2022-10-17T11:36:31.541Z,1.20
2022-10-17T11:39:18.416Z,1.50
2022-10-17T11:42:06.260Z,1.48
2022-10-17T11:44:39.668Z,1.42
2022-10-17T11:47:27.309Z,1.17
2022-10-17T11:53:00.121Z,2.15
2022-10-17T11:55:29.935Z,1.38
2022-10-17T11:58:21.414Z,1.27
2022-10-17T12:01:02.278Z,1.23
2022-10-17T12:03:38.229Z,1.30
2022-10-17T12:06:29.609Z,1.27
2022-10-17T12:09:18.360Z,1.25
2022-10-17T12:11:56.516Z,1.27
2022-10-17T12:14:45.170Z,1.30
2022-10-17T12:17:40.042Z,1.30
2022-10-17T12:20:29.651Z,1.40
2022-10-17T12:23:10.487Z,1.20
2022-10-17T12:26:03.280Z,1.20
2022-10-17T12:28:37.387Z,1.58
2022-10-17T12:31:12.972Z,1.45
2022-10-17T12:33:45.885Z,1.13
2022-10-17T12:36:21.637Z,1.48
2022-10-17T12:39:38.776Z,1.33
2022-10-17T12:42:29.255Z,1.40
2022-10-17T12:44:56.885Z,1.40
2022-10-17T12:47:39.737Z,1.05
2022-10-17T12:50:45.657Z,1.30
2022-10-17T12:53:19.480Z,1.20
2022-10-17T12:55:51.115Z,1.10
2022-10-17T12:58:17.829Z,1.23
2022-10-17T13:01:22.588Z,1.33
2022-10-17T13:03:49.036Z,1.17
2022-10-17T13:06:27.688Z,1.33
2022-10-17T13:09:03.938Z,1.30
2022-10-17T13:11:35.473Z,1.20
2022-10-17T13:14:18.582Z,1.38
2022-10-17T13:16:57.125Z,1.40
2022-10-17T13:19:29.403Z,1.13
2022-10-17T13:22:07.893Z,1.15
2022-10-17T13:24:39.648Z,1.20
2022-10-17T13:27:29.047Z,1.10
2022-10-17T13:30:01.312Z,1.23
2022-10-17T13:32:41.225Z,1.38
2022-10-17T13:35:11.961Z,1.20
2022-10-17T13:37:44.825Z,1.20
2022-10-17T13:40:44.242Z,0.80
2022-10-17T13:43:15.358Z,1.35
2022-10-17T13:45:55.600Z,1.35
2022-10-17T13:48:30.462Z,1.38
2022-10-17T13:51:02.761Z,1.40
2022-10-17T13:53:39.254Z,1.08
2022-10-17T13:56:30.150Z,1.45
2022-10-17T13:59:46.433Z,1.27
2022-10-17T14:02:21.916Z,1.15
2022-10-17T14:05:16.650Z,1.10
2022-10-17T14:10:41.545Z,1.10
2022-10-17T14:13:22.991Z,1.27
2022-10-17T14:15:55.127Z,1.10
2022-10-17T14:18:26.945Z,1.20
2022-10-17T14:21:33.999Z,1.55
2022-10-17T14:23:51.529Z,1.17
2022-10-17T14:26:23.005Z,1.00
2022-10-17T14:29:19.870Z,1.42
2022-10-17T14:34:46.541Z,1.23
2022-10-17T14:37:34.121Z,1.13
2022-10-17T14:40:04.423Z,1.20
2022-10-17T14:42:31.206Z,1.17
2022-10-17T14:45:07.988Z,1.20
2022-10-17T14:47:50.516Z,1.60
2022-10-17T14:53:29.396Z,1.05
2022-10-17T14:56:02.509Z,1.30
2022-10-17T14:58:33.399Z,1.42
2022-10-17T15:01:03.142Z,1.55
2022-10-17T15:03:30.660Z,1.13
2022-10-17T15:05:57.750Z,1.20
2022-10-17T15:08:32.153Z,1.27
2022-10-17T15:11:01.067Z,1.30
2022-10-17T15:13:33.538Z,1.48
2022-10-17T15:16:17.668Z,1.23
2022-10-17T15:18:47.852Z,1.50
2022-10-17T15:21:26.518Z,1.25
2022-10-17T15:24:33.327Z,1.55
2022-10-17T15:27:06.026Z,1.20
2022-10-17T15:29:34.153Z,1.30
2022-10-17T15:32:01.594Z,1.73
2022-10-17T15:34:28.390Z,1.55
2022-10-17T15:36:58.069Z,1.30
2022-10-17T15:39:28.650Z,1.17
2022-10-17T15:41:58.409Z,1.48
2022-10-17T15:44:28.193Z,1.45
2022-10-17T15:46:58.418Z,1.40
2022-10-17T15:49:25.078Z,1.50
2022-10-17T15:51:55.054Z,1.52
2022-10-17T15:54:22.639Z,1.75
2022-10-17T15:57:04.650Z,1.45
2022-10-17T15:59:36.801Z,1.50
